createdAt,value
2023-02-11T00:01:13.118Z,-11.89
2023-02-11T00:03:43.793Z,-11.81
2023-02-11T00:06:17.151Z,-11.75
2023-02-11T00:08:47.970Z,-11.73
2023-02-11T00:11:20.095Z,-11.65
2023-02-11T00:13:51.272Z,-11.63
2023-02-11T00:16:23.503Z,-11.61
2023-02-11T00:18:54.430Z,-11.59
2023-02-11T00:21:29.408Z,-11.60
2023-02-11T00:24:02.462Z,-11.58
2023-02-11T00:26:35.390Z,-11.60
2023-02-11T00:29:07.386Z,-11.59
2023-02-11T00:31:38.058Z,-11.65
2023-02-11T00:34:09.253Z,-11.70
2023-02-11T00:36:42.712Z,-11.76
2023-02-11T00:39:13.552Z,-11.95
2023-02-11T00:41:44.171Z,-12.15
2023-02-11T00:44:16.599Z,-12.27
2023-02-11T00:46:47.630Z,-12.38
2023-02-11T00:49:18.746Z,-12.51
2023-02-11T00:51:51.944Z,-12.63
2023-02-11T00:54:23.879Z,-12.60
2023-02-11T00:56:54.479Z,-12.54
2023-02-11T00:59:25.201Z,-12.53
2023-02-11T01:01:55.823Z,-12.58
2023-02-11T01:04:26.709Z,-12.60
2023-02-11T01:06:59.824Z,-12.45
2023-02-11T01:09:30.385Z,-12.37
2023-02-11T01:12:00.945Z,-12.25
2023-02-11T01:14:31.637Z,-12.29
2023-02-11T01:17:02.132Z,-12.46
2023-02-11T01:19:32.772Z,-12.65
2023-02-11T01:22:05.904Z,-12.77
2023-02-11T01:24:36.540Z,-12.83
2023-02-11T01:27:07.321Z,-12.89
2023-02-11T01:29:37.886Z,-13.05
2023-02-11T01:32:08.779Z,-12.93
2023-02-11T01:34:39.433Z,-12.96
2023-02-11T01:37:12.759Z,-13.03
2023-02-11T01:39:43.280Z,-12.89
2023-02-11T01:42:19.163Z,-12.79
2023-02-11T01:44:52.499Z,-12.75
2023-02-11T01:47:24.064Z,-12.89
2023-02-11T01:49:58.885Z,-12.75
2023-02-11T01:52:39.871Z,-12.61
2023-02-11T01:55:26.472Z,-12.52
2023-02-11T01:57:59.990Z,-12.39
2023-02-11T02:00:36.844Z,-12.66
2023-02-11T02:03:11.351Z,-13.01
2023-02-11T02:05:49.044Z,-13.00
2023-02-11T02:08:29.773Z,-12.98
2023-02-11T02:11:01.264Z,-12.94
2023-02-11T02:13:34.508Z,-12.95
2023-02-11T02:16:29.267Z,-13.00
2023-02-11T02:19:24.592Z,-13.07
2023-02-11T02:22:36.864Z,-13.17
2023-02-11T02:25:45.377Z,-13.31
2023-02-11T02:28:36.713Z,-13.24
2023-02-11T02:31:29.024Z,-13.15
2023-02-11T02:34:05.456Z,-13.09
2023-02-11T02:36:45.648Z,-13.09
2023-02-11T02:39:20.520Z,-12.85
2023-02-11T02:41:52.918Z,-12.75
2023-02-11T02:44:24.395Z,-12.62
2023-02-11T02:46:54.972Z,-12.79
2023-02-11T02:49:28.243Z,-13.21
2023-02-11T02:52:09.928Z,-13.43
2023-02-11T02:55:20.995Z,-13.39
2023-02-11T02:58:08.840Z,-13.34
2023-02-11T03:00:47.139Z,-13.29
2023-02-11T03:03:25.402Z,-13.29
2023-02-11T03:06:04.501Z,-13.32
2023-02-11T03:08:41.221Z,-13.40
2023-02-11T03:11:13.346Z,-13.48
2023-02-11T03:13:45.660Z,-13.58
2023-02-11T03:16:20.808Z,-13.73
2023-02-11T03:18:52.831Z,-13.69
2023-02-11T03:21:28.046Z,-13.60
2023-02-11T03:23:59.772Z,-13.39
2023-02-11T03:26:34.368Z,-13.37
2023-02-11T03:29:11.975Z,-13.48
2023-02-11T03:31:50.728Z,-13.59
2023-02-11T03:34:29.841Z,-13.75
2023-02-11T03:37:06.809Z,-13.87
2023-02-11T03:39:41.988Z,-13.89
2023-02-11T03:42:13.968Z,-13.76
2023-02-11T03:44:50.062Z,-13.73
2023-02-11T03:47:24.253Z,-13.75
2023-02-11T03:49:56.564Z,-13.76
2023-02-11T03:52:30.991Z,-13.77
2023-02-11T03:55:05.642Z,-13.85
2023-02-11T03:57:37.060Z,-13.91
2023-02-11T04:00:09.667Z,-13.97
2023-02-11T04:02:44.403Z,-14.02
2023-02-11T04:05:18.012Z,-14.04
2023-02-11T04:07:51.217Z,-14.11
2023-02-11T04:10:21.902Z,-14.13
2023-02-11T04:12:52.665Z,-14.17
2023-02-11T04:15:23.366Z,-14.18
2023-02-11T04:17:54.324Z,-14.17
2023-02-11T04:20:24.982Z,-14.18
2023-02-11T04:22:58.408Z,-14.15
2023-02-11T04:25:29.507Z,-14.11
2023-02-11T04:28:00.119Z,-14.09
2023-02-11T04:30:31.083Z,-14.07
2023-02-11T04:33:02.235Z,-14.06
2023-02-11T04:35:32.812Z,-14.08
2023-02-11T04:38:05.924Z,-14.08
2023-02-11T04:40:36.498Z,-14.08
2023-02-11T04:43:06.943Z,-14.04
2023-02-11T04:45:37.992Z,-14.01
2023-02-11T04:48:08.842Z,-13.97
2023-02-11T04:50:39.428Z,-13.96
2023-02-11T04:53:12.581Z,-13.96
2023-02-11T04:55:43.216Z,-13.94
2023-02-11T04:58:13.675Z,-13.95
2023-02-11T05:00:44.294Z,-13.97
2023-02-11T05:03:15.202Z,-13.98
2023-02-11T05:05:46.271Z,-13.99
2023-02-11T05:08:19.469Z,-14.00
2023-02-11T05:10:50.789Z,-14.02
2023-02-11T05:13:21.197Z,-14.04
2023-02-11T05:15:52.253Z,-14.07
2023-02-11T05:18:23.004Z,-14.09
2023-02-11T05:20:53.680Z,-14.09
2023-02-11T05:23:26.828Z,-14.09
2023-02-11T05:25:57.395Z,-14.11
2023-02-11T05:28:27.867Z,-14.14
2023-02-11T05:30:59.041Z,-14.13
2023-02-11T05:33:29.573Z,-14.15
2023-02-11T05:36:02.446Z,-14.19
2023-02-11T05:38:36.110Z,-14.15
2023-02-11T05:41:08.022Z,-14.17
2023-02-11T05:43:38.559Z,-14.17
2023-02-11T05:46:09.397Z,-14.18
2023-02-11T05:48:40.135Z,-14.14
2023-02-11T05:51:10.932Z,-14.11
2023-02-11T05:53:44.209Z,-14.07
2023-02-11T05:56:14.816Z,-14.04
2023-02-11T05:58:45.362Z,-14.01
2023-02-11T06:01:15.937Z,-14.00
2023-02-11T06:03:46.596Z,-13.93
2023-02-11T06:06:17.262Z,-13.71
2023-02-11T06:08:50.497Z,-13.51
2023-02-11T06:11:21.442Z,-13.23
2023-02-11T06:13:51.965Z,-13.05
2023-02-11T06:16:22.742Z,-13.21
2023-02-11T06:18:53.382Z,-13.35
2023-02-11T06:21:33.525Z,-13.17
2023-02-11T06:24:13.498Z,-12.90
2023-02-11T06:26:44.265Z,-12.69
2023-02-11T06:29:14.734Z,-12.48
2023-02-11T06:31:45.696Z,-12.30
2023-02-11T06:34:16.533Z,-12.15
2023-02-11T06:36:47.181Z,-12.03
2023-02-11T06:39:20.387Z,-11.94
2023-02-11T06:41:50.909Z,-11.88
2023-02-11T06:44:21.345Z,-11.66
2023-02-11T06:46:52.059Z,-11.33
2023-02-11T06:49:22.713Z,-11.12
2023-02-11T06:51:53.425Z,-10.95
2023-02-11T06:54:26.623Z,-10.68
2023-02-11T06:56:57.360Z,-10.42
2023-02-11T06:59:27.862Z,-10.06
2023-02-11T07:01:58.530Z,-9.86
2023-02-11T07:04:29.055Z,-9.77
2023-02-11T07:06:59.752Z,-9.72
2023-02-11T07:09:32.990Z,-9.69
2023-02-11T07:12:03.601Z,-9.54
2023-02-11T07:14:34.171Z,-9.23
2023-02-11T07:17:05.165Z,-8.96
2023-02-11T07:19:35.789Z,-8.82
2023-02-11T07:22:06.487Z,-8.69
2023-02-11T07:24:39.655Z,-8.56
2023-02-11T07:27:10.321Z,-8.46
2023-02-11T07:29:40.839Z,-8.12
2023-02-11T07:32:11.678Z,-7.68
2023-02-11T07:34:42.381Z,-7.36
2023-02-11T07:37:12.987Z,-7.20
2023-02-11T07:39:46.313Z,-6.83
2023-02-11T07:42:17.096Z,-6.34
2023-02-11T07:44:50.245Z,-5.85
2023-02-11T07:47:21.241Z,-5.62
2023-02-11T07:49:53.926Z,-5.51
2023-02-11T07:52:26.040Z,-5.15
2023-02-11T07:55:00.140Z,-4.84
2023-02-11T07:57:30.754Z,-4.59
2023-02-11T08:00:01.230Z,-4.49
2023-02-11T08:02:41.383Z,-4.37
2023-02-11T08:05:12.102Z,-4.44
2023-02-11T08:07:42.651Z,-4.52
2023-02-11T08:10:15.877Z,-4.49
2023-02-11T08:12:46.494Z,-4.40
2023-02-11T08:15:17.456Z,-4.03
2023-02-11T08:17:48.230Z,-3.70
2023-02-11T08:20:18.812Z,-3.59
2023-02-11T08:22:49.599Z,-3.64
2023-02-11T08:25:22.828Z,-3.42
2023-02-11T08:27:53.552Z,-3.10
2023-02-11T08:30:26.382Z,-2.83
2023-02-11T08:32:58.123Z,-2.84
2023-02-11T08:35:28.673Z,-2.96
2023-02-11T08:37:59.535Z,-3.13
2023-02-11T08:40:32.984Z,-3.25
2023-02-11T08:43:05.223Z,-3.18
2023-02-11T08:45:37.448Z,-2.90
2023-02-11T08:48:08.196Z,-2.66
2023-02-11T08:50:39.121Z,-2.64
2023-02-11T08:53:09.841Z,-2.69
2023-02-11T08:55:42.919Z,-2.68
2023-02-11T08:58:13.517Z,-2.44
2023-02-11T09:00:45.594Z,-2.24
2023-02-11T09:03:16.744Z,-2.16
2023-02-11T09:05:48.247Z,-2.11
2023-02-11T09:08:19.516Z,-2.01
2023-02-11T09:10:52.873Z,-1.81
2023-02-11T09:13:23.656Z,-1.60
2023-02-11T09:15:54.320Z,-1.58
2023-02-11T09:18:24.966Z,-1.69
2023-02-11T09:20:55.576Z,-1.78
2023-02-11T09:23:26.224Z,-1.72
2023-02-11T09:25:59.278Z,-1.51
2023-02-11T09:28:29.924Z,-1.44
2023-02-11T09:31:00.608Z,-1.74
2023-02-11T09:33:31.338Z,-2.11
2023-02-11T09:36:03.920Z,-2.57
2023-02-11T09:38:34.789Z,-3.05
2023-02-11T09:41:08.791Z,-3.38
2023-02-11T09:43:46.708Z,-3.58
2023-02-11T09:46:20.688Z,-3.61
2023-02-11T09:48:53.928Z,-3.15
2023-02-11T09:51:36.758Z,-2.59
2023-02-11T09:54:14.904Z,-2.21
2023-02-11T09:56:48.130Z,-2.46
2023-02-11T09:59:20.445Z,-2.64
2023-02-11T10:01:54.003Z,-2.79
2023-02-11T10:04:42.705Z,-2.75
2023-02-11T10:07:23.204Z,-2.68
2023-02-11T10:10:06.402Z,-2.65
2023-02-11T10:12:54.347Z,-2.66
2023-02-11T10:15:32.152Z,-2.59
2023-02-11T10:18:19.573Z,-2.44
2023-02-11T10:21:01.813Z,-2.09
2023-02-11T10:23:38.039Z,-1.67
2023-02-11T10:26:15.900Z,-1.22
2023-02-11T10:28:51.607Z,-0.82
2023-02-11T10:31:30.256Z,-0.45
2023-02-11T10:34:06.286Z,-0.09
2023-02-11T10:36:39.822Z,0.25
2023-02-11T10:39:21.561Z,0.57
2023-02-11T10:41:55.685Z,0.83
2023-02-11T10:44:34.179Z,1.10
2023-02-11T10:47:08.579Z,1.33
2023-02-11T10:49:43.451Z,1.55
2023-02-11T10:52:21.662Z,1.75
2023-02-11T10:55:02.961Z,1.95
2023-02-11T10:57:40.163Z,2.14
2023-02-11T11:00:39.326Z,2.33
2023-02-11T11:03:26.034Z,2.47
2023-02-11T11:05:59.940Z,2.35
2023-02-11T11:08:42.898Z,1.78
2023-02-11T11:11:15.124Z,1.14
2023-02-11T11:13:58.581Z,0.85
2023-02-11T11:16:33.310Z,0.93
2023-02-11T11:19:23.261Z,1.02
2023-02-11T11:21:55.611Z,0.51
2023-02-11T11:24:30.279Z,0.10
2023-02-11T11:27:03.970Z,-0.29
2023-02-11T11:29:37.839Z,-0.54
2023-02-11T11:32:19.480Z,-0.73
2023-02-11T11:34:54.270Z,-0.83
2023-02-11T11:37:29.396Z,-0.62
2023-02-11T11:40:03.462Z,-0.28
2023-02-11T11:42:36.697Z,0.12
2023-02-11T11:45:26.032Z,0.59
2023-02-11T11:48:02.792Z,1.02
2023-02-11T11:50:38.923Z,1.43
2023-02-11T11:53:17.034Z,1.80
2023-02-11T11:55:51.480Z,2.13
2023-02-11T11:58:24.350Z,2.42
2023-02-11T12:01:01.906Z,2.67
2023-02-11T12:04:09.186Z,2.92
2023-02-11T12:06:48.814Z,3.16
2023-02-11T12:09:27.992Z,3.38
2023-02-11T12:12:15.795Z,3.62
2023-02-11T12:14:57.708Z,3.82
2023-02-11T12:17:47.582Z,3.99
2023-02-11T12:20:34.576Z,4.14
2023-02-11T12:23:24.014Z,4.28
2023-02-11T12:26:02.253Z,4.39
2023-02-11T12:28:42.050Z,4.36
2023-02-11T12:31:22.406Z,4.18
2023-02-11T12:34:10.698Z,3.93
2023-02-11T12:36:57.549Z,3.52
2023-02-11T12:39:43.334Z,3.08
2023-02-11T12:42:49.442Z,2.95
2023-02-11T12:45:29.695Z,2.81
2023-02-11T12:48:25.716Z,2.51
2023-02-11T12:51:04.765Z,2.17
2023-02-11T12:54:06.847Z,1.85
2023-02-11T12:56:43.295Z,1.56
2023-02-11T12:59:20.392Z,1.54
2023-02-11T13:01:54.362Z,1.47
2023-02-11T13:04:31.599Z,1.28
2023-02-11T13:07:08.738Z,1.11
2023-02-11T13:09:47.028Z,0.93
2023-02-11T13:12:31.192Z,0.74
2023-02-11T13:15:06.588Z,0.81
2023-02-11T13:17:47.134Z,0.86
2023-02-11T13:20:27.770Z,0.81
2023-02-11T13:23:04.020Z,0.54
2023-02-11T13:25:44.795Z,0.59
2023-02-11T13:28:36.819Z,0.70
2023-02-11T13:31:08.965Z,0.49
2023-02-11T13:33:43.280Z,-0.18
2023-02-11T13:36:17.905Z,-0.80
2023-02-11T13:38:57.701Z,-1.32
2023-02-11T13:41:36.966Z,-1.69
2023-02-11T13:44:22.697Z,-1.95
2023-02-11T13:46:57.468Z,-2.12
2023-02-11T13:49:32.110Z,-2.24
2023-02-11T13:52:04.577Z,-2.31
2023-02-11T13:54:40.429Z,-2.26
2023-02-11T13:57:33.252Z,-2.14
2023-02-11T14:00:06.354Z,-1.95
2023-02-11T14:02:52.329Z,-1.83
2023-02-11T14:05:46.567Z,-1.84
2023-02-11T14:08:39.896Z,-1.66
2023-02-11T14:11:27.656Z,-1.55
2023-02-11T14:14:24.095Z,-1.26
2023-02-11T14:17:23.876Z,-0.96
2023-02-11T14:19:54.708Z,-1.24
2023-02-11T14:22:28.993Z,-1.75
2023-02-11T14:25:02.433Z,-2.18
2023-02-11T14:27:41.569Z,-2.54
2023-02-11T14:30:35.258Z,-2.84
2023-02-11T14:33:22.774Z,-3.03
2023-02-11T14:36:06.010Z,-3.10
2023-02-11T14:38:45.632Z,-3.09
2023-02-11T14:41:22.756Z,-3.06
2023-02-11T14:43:55.815Z,-2.99
2023-02-11T14:46:30.993Z,-2.91
2023-02-11T14:49:04.591Z,-2.87
2023-02-11T14:51:39.239Z,-2.93
2023-02-11T14:54:17.128Z,-3.08
2023-02-11T14:56:48.250Z,-3.23
2023-02-11T14:59:22.176Z,-3.44
2023-02-11T15:01:57.376Z,-3.60
2023-02-11T15:04:31.098Z,-3.78
2023-02-11T15:07:06.629Z,-3.74
2023-02-11T15:09:40.333Z,-3.76
2023-02-11T15:12:20.501Z,-3.73
2023-02-11T15:14:53.718Z,-3.67
2023-02-11T15:17:29.236Z,-3.66
2023-02-11T15:20:01.217Z,-3.71
2023-02-11T15:22:37.033Z,-3.69
2023-02-11T15:25:16.512Z,-3.52
2023-02-11T15:27:48.594Z,-3.26
2023-02-11T15:30:29.965Z,-3.39
2023-02-11T15:33:06.257Z,-3.73
2023-02-11T15:35:41.275Z,-4.04
2023-02-11T15:38:16.104Z,-4.32
2023-02-11T15:40:56.053Z,-4.54
2023-02-11T15:43:26.444Z,-4.70
2023-02-11T15:46:03.285Z,-4.78
2023-02-11T15:48:40.991Z,-4.81
2023-02-11T15:51:22.155Z,-4.81
2023-02-11T15:53:57.173Z,-4.83
2023-02-11T15:56:34.657Z,-4.69
2023-02-11T15:59:19.236Z,-4.50
2023-02-11T16:01:51.711Z,-4.19
2023-02-11T16:04:27.582Z,-3.98
2023-02-11T16:06:59.278Z,-3.79
2023-02-11T16:09:36.089Z,-3.61
2023-02-11T16:12:09.778Z,-3.44
2023-02-11T16:14:40.312Z,-3.29
2023-02-11T16:17:14.349Z,-3.13
2023-02-11T16:19:51.710Z,-3.00
2023-02-11T16:22:25.965Z,-2.91
2023-02-11T16:25:00.376Z,-2.86
2023-02-11T16:27:36.574Z,-2.77
2023-02-11T16:30:08.078Z,-2.69
2023-02-11T16:32:38.739Z,-2.63
2023-02-11T16:35:15.434Z,-2.56
2023-02-11T16:37:45.906Z,-2.52
2023-02-11T16:40:17.222Z,-2.50
2023-02-11T16:42:47.785Z,-2.48
2023-02-11T16:45:18.864Z,-2.45
2023-02-11T16:47:49.551Z,-2.45
2023-02-11T16:53:44.581Z,-2.45
2023-02-11T16:56:19.432Z,-2.45
2023-02-11T16:58:49.912Z,-2.47
2023-02-11T17:01:20.499Z,-2.80
2023-02-11T17:03:51.721Z,-3.29
2023-02-11T17:06:24.472Z,-3.90
2023-02-11T17:08:57.611Z,-4.37
2023-02-11T17:11:28.417Z,-4.79
2023-02-11T17:13:58.910Z,-5.08
2023-02-11T17:16:30.125Z,-5.26
2023-02-11T17:19:00.867Z,-5.39
2023-02-11T17:21:32.293Z,-5.24
2023-02-11T17:24:05.528Z,-5.13
2023-02-11T17:26:37.120Z,-5.06
2023-02-11T17:29:08.447Z,-5.02
2023-02-11T17:31:39.755Z,-5.01
2023-02-11T17:34:10.795Z,-5.04
2023-02-11T17:36:41.587Z,-5.12
2023-02-11T17:39:15.494Z,-5.28
2023-02-11T17:41:46.087Z,-5.18
2023-02-11T17:44:17.195Z,-5.08
2023-02-11T17:46:47.930Z,-5.18
2023-02-11T17:49:18.492Z,-5.61
2023-02-11T17:51:49.953Z,-6.06
2023-02-11T17:54:23.565Z,-6.49
2023-02-11T17:56:57.813Z,-6.79
2023-02-11T17:59:31.872Z,-6.93
2023-02-11T18:02:02.526Z,-7.11
2023-02-11T18:04:33.352Z,-7.27
2023-02-11T18:07:04.739Z,-7.23
2023-02-11T18:09:39.938Z,-7.33
2023-02-11T18:12:11.446Z,-7.27
2023-02-11T18:14:42.598Z,-7.19
2023-02-11T18:17:13.532Z,-7.13
2023-02-11T18:19:44.348Z,-6.97
2023-02-11T18:22:15.449Z,-6.82
2023-02-11T18:24:49.162Z,-6.77
2023-02-11T18:27:19.920Z,-6.55
2023-02-11T18:29:50.778Z,-6.37
2023-02-11T18:32:21.431Z,-6.18
2023-02-11T18:34:51.920Z,-6.00
2023-02-11T18:37:22.557Z,-5.84
2023-02-11T18:39:55.988Z,-5.68
2023-02-11T18:42:26.596Z,-5.54
2023-02-11T18:44:57.244Z,-5.42
2023-02-11T18:47:27.921Z,-5.29
2023-02-11T18:49:58.431Z,-5.19
2023-02-11T18:52:29.037Z,-5.12
2023-02-11T18:55:02.213Z,-5.11
2023-02-11T18:57:33.838Z,-5.18
2023-02-11T19:00:04.427Z,-5.36
2023-02-11T19:02:35.412Z,-5.55
2023-02-11T19:05:06.681Z,-5.73
2023-02-11T19:07:37.407Z,-5.89
2023-02-11T19:10:11.565Z,-6.08
2023-02-11T19:12:43.477Z,-6.24
2023-02-11T19:15:14.488Z,-6.43
2023-02-11T19:17:45.203Z,-6.41
2023-02-11T19:20:15.803Z,-6.32
2023-02-11T19:22:47.369Z,-6.27
2023-02-11T19:25:20.605Z,-6.29
2023-02-11T19:27:51.245Z,-6.30
2023-02-11T19:30:22.159Z,-6.33
2023-02-11T19:32:56.134Z,-6.20
2023-02-11T19:35:27.366Z,-6.18
2023-02-11T19:37:58.029Z,-6.04
2023-02-11T19:40:31.220Z,-5.97
2023-02-11T19:43:01.981Z,-5.93
2023-02-11T19:45:32.488Z,-5.96
2023-02-11T19:48:03.077Z,-5.91
2023-02-11T19:50:33.728Z,-5.87
2023-02-11T19:53:05.241Z,-5.94
2023-02-11T19:55:40.424Z,-6.03
2023-02-11T19:58:11.197Z,-6.26
2023-02-11T20:00:42.201Z,-6.24
2023-02-11T20:03:13.264Z,-6.21
2023-02-11T20:05:47.371Z,-6.23
2023-02-11T20:08:18.793Z,-6.32
2023-02-11T20:10:51.977Z,-6.46
2023-02-11T20:13:23.210Z,-6.59
2023-02-11T20:15:54.057Z,-6.76
2023-02-11T20:18:25.111Z,-6.88
2023-02-11T20:20:55.689Z,-6.96
2023-02-11T20:23:26.238Z,-6.98
2023-02-11T20:25:59.539Z,-7.01
2023-02-11T20:28:30.304Z,-7.03
2023-02-11T20:31:01.194Z,-6.93
2023-02-11T20:33:32.881Z,-6.81
2023-02-11T20:36:05.314Z,-6.84
2023-02-11T20:38:36.071Z,-6.93
2023-02-11T20:41:14.007Z,-6.85
2023-02-11T20:43:46.158Z,-6.73
2023-02-11T20:46:18.350Z,-6.65
2023-02-11T20:48:49.415Z,-6.70
2023-02-11T20:51:23.437Z,-6.78
2023-02-11T20:53:55.100Z,-6.87
2023-02-11T20:56:30.337Z,-7.05
2023-02-11T20:59:02.371Z,-7.15
2023-02-11T21:01:35.422Z,-7.13
2023-02-11T21:04:08.467Z,-7.04
2023-02-11T21:06:41.382Z,-7.06
2023-02-11T21:09:13.913Z,-7.12
2023-02-11T21:11:46.987Z,-7.19
2023-02-11T21:14:18.591Z,-7.30
2023-02-11T21:16:49.414Z,-7.38
2023-02-11T21:19:21.446Z,-7.44
2023-02-11T21:21:52.199Z,-7.48
2023-02-11T21:24:23.174Z,-7.52
2023-02-11T21:26:56.358Z,-7.54
2023-02-11T21:29:26.992Z,-7.55
2023-02-11T21:31:57.633Z,-7.59
2023-02-11T21:34:28.310Z,-7.61
2023-02-11T21:36:58.881Z,-7.61
2023-02-11T21:39:29.529Z,-7.59
2023-02-11T21:42:02.721Z,-7.58
2023-02-11T21:44:33.685Z,-7.59
2023-02-11T21:47:04.530Z,-7.62
2023-02-11T21:49:35.126Z,-7.60
2023-02-11T21:52:05.606Z,-7.43
2023-02-11T21:54:36.280Z,-7.33
2023-02-11T21:57:09.489Z,-7.35
2023-02-11T21:59:40.059Z,-7.41
2023-02-11T22:02:11.619Z,-7.24
2023-02-11T22:04:42.810Z,-7.11
2023-02-11T22:07:13.368Z,-7.06
2023-02-11T22:09:44.842Z,-7.12
2023-02-11T22:12:18.123Z,-7.18
2023-02-11T22:14:48.692Z,-7.28
2023-02-11T22:17:19.216Z,-7.42
2023-02-11T22:19:49.809Z,-7.51
2023-02-11T22:22:21.427Z,-7.53
2023-02-11T22:24:52.144Z,-7.53
2023-02-11T22:27:25.787Z,-7.53
2023-02-11T22:29:56.305Z,-7.52
2023-02-11T22:32:27.066Z,-7.51
2023-02-11T22:34:57.694Z,-7.50
2023-02-11T22:37:28.275Z,-7.49
2023-02-11T22:39:58.866Z,-7.49
2023-02-11T22:42:32.017Z,-7.47
2023-02-11T22:45:03.310Z,-7.47
2023-02-11T22:47:36.496Z,-7.45
2023-02-11T22:50:08.105Z,-7.44
2023-02-11T22:52:39.472Z,-7.42
2023-02-11T22:55:10.648Z,-7.41
2023-02-11T22:57:45.359Z,-7.43
2023-02-11T23:00:17.777Z,-7.44
2023-02-11T23:02:49.100Z,-7.43
2023-02-11T23:05:20.091Z,-7.43
2023-02-11T23:07:50.638Z,-7.45
2023-02-11T23:10:22.461Z,-7.48
2023-02-11T23:12:56.549Z,-7.53
2023-02-11T23:15:27.492Z,-7.57
2023-02-11T23:17:58.210Z,-7.55
2023-02-11T23:20:29.068Z,-7.49
2023-02-11T23:22:59.640Z,-7.41
2023-02-11T23:25:30.651Z,-7.22
2023-02-11T23:28:04.086Z,-7.04
2023-02-11T23:30:35.448Z,-7.02
2023-02-11T23:33:06.394Z,-7.03
2023-02-11T23:35:37.440Z,-6.87
2023-02-11T23:38:08.450Z,-6.74
2023-02-11T23:40:39.106Z,-6.79
2023-02-11T23:43:12.491Z,-7.05
2023-02-11T23:45:43.088Z,-7.25
2023-02-11T23:48:13.919Z,-7.34
2023-02-11T23:50:45.029Z,-7.22
2023-02-11T23:53:15.877Z,-7.13
2023-02-11T23:55:47.757Z,-7.12
2023-02-11T23:58:20.924Z,-7.13
